Time;durP1;ratioP1;P1;durP2;ratioP2;P2;SDS_P1;SDS_P2;PMS_P1;PMS_P2;Temp;Humidity;BMP_temperature;BMP_pressure;BME280_temperature;BME280_humidity;BME280_pressure;Samples;Min_cycle;Max_cycle;Signal;HPM_P1;HPM_P2
2023/06/11 00:10:58;;;;;;;;;;;16.40;77.80;;;;;;6167827;23;19928;-86
2023/06/11 00:13:24;;;;;;;;;;;16.50;77.80;;;;;;6132322;23;20233;-87
2023/06/11 00:15:50;;;;;;;;;;;16.50;78.00;;;;;;6134075;23;20043;-86
2023/06/11 00:18:16;;;;;;;;;;;16.60;77.60;;;;;;6097981;23;19987;-87
2023/06/11 00:20:43;;;;;;;;;;;16.60;77.90;;;;;;6133723;23;20323;-87
2023/06/11 00:23:09;;;;;;;;;;;16.60;77.60;;;;;;6107418;23;19947;-88
2023/06/11 00:25:35;;;;;;;;;;;16.70;77.80;;;;;;6109454;23;19955;-85
2023/06/11 00:28:00;;;;;;;;;;;16.70;77.30;;;;;;6100105;23;19974;-86
2023/06/11 00:30:26;;;;;;;;;;;16.70;77.40;;;;;;6134393;23;20401;-86
2023/06/11 00:32:52;;;;;;;;;;;16.70;77.60;;;;;;6132347;23;19955;-86
2023/06/11 00:35:17;;;;;;;;;;;16.70;77.50;;;;;;6133910;23;19920;-86
2023/06/11 00:37:43;;;;;;;;;;;16.80;77.50;;;;;;6126101;23;19920;-87
2023/06/11 00:40:09;;;;;;;;;;;16.80;77.40;;;;;;6134648;23;19920;-86
2023/06/11 00:42:45;;;;;;;;;;;16.90;77.10;;;;;;6095129;23;19988;-89
2023/06/11 00:45:11;;;;;;;;;;;16.90;77.10;;;;;;6114034;23;19956;-86
2023/06/11 00:47:38;;;;;;;;;;;17.00;76.90;;;;;;6124037;23;19991;-86
2023/06/11 00:50:04;;;;;;;;;;;17.00;76.60;;;;;;6133808;23;19921;-86
2023/06/11 00:52:30;;;;;;;;;;;17.00;76.40;;;;;;6131744;23;19978;-85
2023/06/11 00:54:56;;;;;;;;;;;17.10;76.20;;;;;;6109168;23;19920;-86
2023/06/11 00:57:25;;;;;;;;;;;17.20;76.20;;;;;;6124488;23;19928;-86
2023/06/11 00:59:53;;;;;;;;;;;17.10;76.20;;;;;;6133678;23;20746;-86
2023/06/11 01:02:33;;;;;;;;;;;17.10;76.00;;;;;;6131791;23;19924;-85
2023/06/11 01:05:00;;;;;;;;;;;17.10;75.80;;;;;;6133594;23;19995;-86
2023/06/11 01:07:30;;;;;;;;;;;17.10;75.70;;;;;;6123880;23;20259;-86
2023/06/11 01:09:56;;;;;;;;;;;17.10;75.70;;;;;;6133392;23;19920;-87
2023/06/11 01:12:22;;;;;;;;;;;17.10;75.60;;;;;;6106840;23;20641;-86
2023/06/11 01:14:48;;;;;;;;;;;17.20;75.60;;;;;;6133622;23;19924;-86
2023/06/11 01:17:17;;;;;;;;;;;17.20;75.40;;;;;;6124699;23;19979;-86
2023/06/11 01:19:52;;;;;;;;;;;17.20;75.20;;;;;;6133582;23;20247;-86
2023/06/11 01:22:21;;;;;;;;;;;17.10;75.00;;;;;;6131666;23;19925;-86
2023/06/11 01:24:53;;;;;;;;;;;17.00;74.80;;;;;;6133359;23;20000;-86
2023/06/11 01:27:22;;;;;;;;;;;17.00;74.70;;;;;;6123842;23;19924;-86
2023/06/11 01:29:49;;;;;;;;;;;16.90;75.00;;;;;;6133768;23;19921;-86
2023/06/11 01:32:17;;;;;;;;;;;16.80;75.20;;;;;;6132079;23;20354;-85
2023/06/11 01:34:49;;;;;;;;;;;16.80;75.30;;;;;;6133931;23;19927;-94
2023/06/11 01:37:18;;;;;;;;;;;16.80;75.10;;;;;;6126643;23;19920;-91
2023/06/11 01:39:45;;;;;;;;;;;16.70;75.40;;;;;;6109660;23;19953;-87
2023/06/11 01:42:11;;;;;;;;;;;16.70;75.70;;;;;;6131927;23;19947;-87
2023/06/11 01:44:37;;;;;;;;;;;16.60;75.70;;;;;;6109220;23;19920;-87
2023/06/11 01:47:03;;;;;;;;;;;16.60;75.70;;;;;;6124220;23;19923;-87
2023/06/11 01:49:28;;;;;;;;;;;16.60;75.30;;;;;;6132426;23;19931;-87
2023/06/11 01:51:54;;;;;;;;;;;16.50;75.30;;;;;;6133348;23;19942;-87
2023/06/11 01:54:20;;;;;;;;;;;16.50;75.80;;;;;;6131047;23;19920;-86
2023/06/11 01:56:46;;;;;;;;;;;16.40;75.90;;;;;;6100524;23;19991;-88
2023/06/11 01:59:12;;;;;;;;;;;16.40;75.50;;;;;;6130729;23;19927;-87
2023/06/11 02:01:40;;;;;;;;;;;16.30;76.00;;;;;;6133329;23;19934;-87
2023/06/11 02:04:05;;;;;;;;;;;16.20;75.90;;;;;;6106905;23;19921;-86
2023/06/11 02:06:31;;;;;;;;;;;16.20;75.90;;;;;;6104377;23;19922;-88
2023/06/11 02:08:57;;;;;;;;;;;16.20;75.70;;;;;;6128742;23;19920;-86
2023/06/11 02:11:23;;;;;;;;;;;16.10;75.80;;;;;;6108838;23;19924;-86
2023/06/11 02:13:48;;;;;;;;;;;16.10;75.80;;;;;;6156348;23;19924;-86
2023/06/11 02:16:14;;;;;;;;;;;16.00;76.00;;;;;;6131432;23;19991;-89
2023/06/11 02:18:40;;;;;;;;;;;16.00;76.10;;;;;;6126725;23;20319;-86
2023/06/11 02:21:05;;;;;;;;;;;16.00;76.20;;;;;;6132461;23;20316;-86
2023/06/11 02:23:31;;;;;;;;;;;15.90;76.10;;;;;;6131806;23;19928;-86
2023/06/11 02:25:57;;;;;;;;;;;15.80;76.00;;;;;;6133396;23;19963;-87
2023/06/11 02:28:22;;;;;;;;;;;15.80;75.80;;;;;;6100089;23;19927;-86
2023/06/11 02:30:48;;;;;;;;;;;15.80;76.10;;;;;;6109127;23;20362;-86
2023/06/11 02:33:14;;;;;;;;;;;15.70;76.40;;;;;;6131818;23;20335;-86
2023/06/11 02:35:39;;;;;;;;;;;15.80;76.70;;;;;;6111204;23;19920;-86
2023/06/11 02:38:05;;;;;;;;;;;15.80;76.60;;;;;;6127808;23;19927;-86
2023/06/11 02:40:30;;;;;;;;;;;15.80;76.50;;;;;;6134779;23;20336;-85
2023/06/11 02:42:56;;;;;;;;;;;15.80;76.70;;;;;;6133872;23;19920;-86
2023/06/11 02:45:22;;;;;;;;;;;15.80;76.50;;;;;;6135017;23;20367;-87
2023/06/11 02:47:47;;;;;;;;;;;15.80;76.40;;;;;;6126257;23;19921;-86
2023/06/11 02:50:13;;;;;;;;;;;15.80;76.40;;;;;;6135307;23;19931;-87
2023/06/11 02:52:39;;;;;;;;;;;15.80;76.20;;;;;;6133752;23;19921;-86
2023/06/11 02:55:05;;;;;;;;;;;15.80;76.30;;;;;;6135122;23;20351;-87
2023/06/11 02:57:30;;;;;;;;;;;15.90;76.40;;;;;;6126940;23;19921;-87
2023/06/11 02:59:56;;;;;;;;;;;15.90;76.00;;;;;;6135385;23;19999;-86
2023/06/11 03:02:21;;;;;;;;;;;15.90;75.90;;;;;;6108745;23;19974;-86
2023/06/11 03:04:47;;;;;;;;;;;15.90;76.00;;;;;;6134400;23;19924;-86
2023/06/11 03:07:13;;;;;;;;;;;15.90;75.80;;;;;;6098704;23;19924;-86
2023/06/11 03:09:38;;;;;;;;;;;15.90;75.80;;;;;;6107725;23;19928;-87
2023/06/11 03:12:05;;;;;;;;;;;15.90;75.70;;;;;;6129619;23;20375;-87
2023/06/11 03:14:31;;;;;;;;;;;15.90;75.60;;;;;;6132353;23;19924;-86
2023/06/11 03:16:57;;;;;;;;;;;15.90;75.60;;;;;;6126738;23;19927;-85
2023/06/11 03:19:22;;;;;;;;;;;15.80;75.40;;;;;;6132812;23;19921;-86
2023/06/11 03:21:48;;;;;;;;;;;15.80;75.20;;;;;;6134973;23;20031;-86
2023/06/11 03:24:14;;;;;;;;;;;15.80;75.40;;;;;;6132952;23;19920;-86
2023/06/11 03:26:40;;;;;;;;;;;15.80;75.40;;;;;;6129127;23;20410;-86
2023/06/11 03:29:06;;;;;;;;;;;15.70;75.40;;;;;;6131209;23;19954;-86
2023/06/11 03:31:31;;;;;;;;;;;15.70;75.40;;;;;;6135097;23;20279;-86
2023/06/11 03:33:57;;;;;;;;;;;15.60;75.40;;;;;;6133292;23;19970;-86
2023/06/11 03:36:23;;;;;;;;;;;15.60;75.50;;;;;;6131021;23;19920;-88
2023/06/11 03:38:48;;;;;;;;;;;15.60;75.60;;;;;;6106357;23;19924;-87
2023/06/11 03:41:14;;;;;;;;;;;15.60;75.50;;;;;;6134126;23;19920;-86
2023/06/11 03:43:40;;;;;;;;;;;15.60;75.70;;;;;;6133354;23;19920;-86
2023/06/11 03:46:05;;;;;;;;;;;15.70;75.60;;;;;;6109870;23;19920;-88
2023/06/11 03:48:31;;;;;;;;;;;15.80;75.60;;;;;;6125866;23;19920;-86
2023/06/11 03:50:57;;;;;;;;;;;15.80;75.70;;;;;;6134806;23;19926;-86
2023/06/11 03:53:23;;;;;;;;;;;15.80;75.70;;;;;;6132823;23;19943;-86
2023/06/11 03:55:48;;;;;;;;;;;15.80;75.70;;;;;;6134166;23;19924;-86
2023/06/11 03:58:14;;;;;;;;;;;15.80;75.80;;;;;;6125621;23;19920;-86
2023/06/11 04:00:40;;;;;;;;;;;15.90;75.70;;;;;;6110034;23;20243;-86
2023/06/11 04:03:05;;;;;;;;;;;15.90;75.60;;;;;;6133065;23;20316;-87
2023/06/11 04:05:35;;;;;;;;;;;15.90;75.70;;;;;;6110061;23;19924;-86
2023/06/11 04:08:01;;;;;;;;;;;16.00;75.60;;;;;;6125560;23;20264;-87
2023/06/11 04:10:27;;;;;;;;;;;16.00;75.70;;;;;;6134135;23;19962;-86
2023/06/11 04:12:52;;;;;;;;;;;16.00;75.70;;;;;;6132842;23;19928;-87
2023/06/11 04:15:18;;;;;;;;;;;16.00;75.60;;;;;;6134564;23;19956;-86
2023/06/11 04:17:44;;;;;;;;;;;16.00;75.50;;;;;;6124936;23;19935;-86
2023/06/11 04:20:09;;;;;;;;;;;16.10;75.50;;;;;;6134166;23;19935;-86
2023/06/11 04:22:35;;;;;;;;;;;16.10;75.50;;;;;;6108316;23;19920;-86
2023/06/11 04:25:01;;;;;;;;;;;16.10;75.60;;;;;;6134117;23;19924;-89
2023/06/11 04:27:26;;;;;;;;;;;16.10;75.50;;;;;;6125304;23;20000;-86
2023/06/11 04:29:56;;;;;;;;;;;16.20;75.60;;;;;;6134788;23;19920;-85
2023/06/11 04:32:26;;;;;;;;;;;16.30;75.60;;;;;;6132711;23;19952;-86
2023/06/11 04:34:56;;;;;;;;;;;16.30;75.50;;;;;;6134123;23;19927;-87
2023/06/11 04:37:23;;;;;;;;;;;16.40;75.50;;;;;;6102605;23;19920;-86
2023/06/11 04:39:49;;;;;;;;;;;16.40;75.50;;;;;;6134633;23;19924;-85
2023/06/11 04:42:16;;;;;;;;;;;16.50;75.40;;;;;;6132143;23;20054;-86
2023/06/11 04:44:41;;;;;;;;;;;16.50;75.40;;;;;;6134305;23;19920;-86
2023/06/11 04:47:08;;;;;;;;;;;16.60;75.40;;;;;;6100235;23;19923;-87
2023/06/11 04:49:33;;;;;;;;;;;16.70;75.40;;;;;;6110002;23;19920;-86
2023/06/11 04:51:59;;;;;;;;;;;16.80;75.40;;;;;;6109805;23;19975;-86
2023/06/11 04:54:26;;;;;;;;;;;16.80;75.40;;;;;;6132303;23;19955;-87
2023/06/11 04:56:52;;;;;;;;;;;17.00;75.20;;;;;;6102894;23;19916;-86
2023/06/11 04:59:18;;;;;;;;;;;17.00;75.30;;;;;;6131957;23;19924;-86
2023/06/11 05:01:47;;;;;;;;;;;17.20;74.90;;;;;;6133546;23;20005;-86
2023/06/11 05:04:13;;;;;;;;;;;17.30;75.10;;;;;;6132415;23;20252;-86
2023/06/11 05:06:44;;;;;;;;;;;17.50;74.70;;;;;;6129033;23;19920;-87
2023/06/11 05:09:11;;;;;;;;;;;17.70;74.20;;;;;;6131514;23;20282;-86
2023/06/11 05:11:37;;;;;;;;;;;18.00;74.00;;;;;;6133331;23;20314;-87
2023/06/11 05:14:02;;;;;;;;;;;18.10;74.30;;;;;;6107617;23;19920;-87
2023/06/11 05:16:28;;;;;;;;;;;18.40;73.80;;;;;;6130751;23;19919;-88
2023/06/11 05:18:54;;;;;;;;;;;18.60;72.80;;;;;;6129298;23;20284;-86
2023/06/11 05:21:20;;;;;;;;;;;18.90;71.70;;;;;;6133719;23;19966;-87
2023/06/11 05:23:45;;;;;;;;;;;19.10;72.30;;;;;;6131984;23;20342;-86
2023/06/11 05:26:15;;;;;;;;;;;19.30;71.30;;;;;;6108011;23;19927;-89
2023/06/11 05:28:40;;;;;;;;;;;19.40;71.00;;;;;;6126417;23;19924;-86
2023/06/11 05:31:09;;;;;;;;;;;19.50;70.30;;;;;;6133584;23;19920;-86
2023/06/11 05:33:34;;;;;;;;;;;19.70;70.50;;;;;;6108530;23;19943;-87
2023/06/11 05:36:00;;;;;;;;;;;20.00;70.00;;;;;;6109160;23;20328;-87
2023/06/11 05:38:26;;;;;;;;;;;20.20;69.10;;;;;;6126733;23;20324;-87
2023/06/11 05:40:51;;;;;;;;;;;20.40;68.90;;;;;;6133877;23;19924;-86
2023/06/11 05:43:17;;;;;;;;;;;20.50;68.60;;;;;;6130459;23;19920;-86
2023/06/11 05:45:47;;;;;;;;;;;20.50;68.60;;;;;;6130654;23;19925;-87
2023/06/11 05:48:13;;;;;;;;;;;20.50;68.50;;;;;;6123033;23;19943;-88
2023/06/11 05:50:39;;;;;;;;;;;20.50;68.00;;;;;;6106063;23;19999;-87
2023/06/11 05:53:04;;;;;;;;;;;20.40;68.50;;;;;;6129574;23;19924;-87
2023/06/11 05:55:30;;;;;;;;;;;20.30;68.70;;;;;;6108743;23;19928;-86
2023/06/11 05:57:56;;;;;;;;;;;20.40;69.10;;;;;;6125641;23;19920;-87
2023/06/11 06:00:21;;;;;;;;;;;20.40;68.70;;;;;;6133754;23;19931;-87
2023/06/11 06:02:47;;;;;;;;;;;20.40;68.40;;;;;;6131919;23;19967;-86
2023/06/11 06:05:15;;;;;;;;;;;20.50;68.60;;;;;;6133511;23;19994;-87
2023/06/11 06:07:41;;;;;;;;;;;20.50;68.40;;;;;;6124226;23;19920;-86
2023/06/11 06:10:07;;;;;;;;;;;20.50;68.00;;;;;;6108799;23;19927;-86
2023/06/11 06:12:32;;;;;;;;;;;20.60;68.00;;;;;;6131708;23;19920;-86
2023/06/11 06:14:58;;;;;;;;;;;20.60;69.00;;;;;;6133049;23;19982;-87
2023/06/11 06:17:24;;;;;;;;;;;20.70;68.30;;;;;;6124186;23;20354;-87
2023/06/11 06:19:49;;;;;;;;;;;20.70;68.70;;;;;;6109273;23;20243;-89
2023/06/11 06:22:18;;;;;;;;;;;20.80;67.70;;;;;;6131975;23;19921;-86
2023/06/11 06:24:43;;;;;;;;;;;20.80;68.40;;;;;;6109932;23;19956;-87
2023/06/11 06:27:09;;;;;;;;;;;20.80;67.40;;;;;;6124010;23;19924;-86
2023/06/11 06:29:38;;;;;;;;;;;20.90;67.40;;;;;;6109053;23;20332;-86
2023/06/11 06:32:07;;;;;;;;;;;20.90;66.80;;;;;;6131491;23;19921;-87
2023/06/11 06:34:33;;;;;;;;;;;20.90;67.20;;;;;;6133544;23;19926;-86
2023/06/11 06:36:58;;;;;;;;;;;20.90;66.80;;;;;;6126420;23;19990;-86
2023/06/11 06:39:24;;;;;;;;;;;21.00;67.20;;;;;;6108632;23;19927;-86
2023/06/11 06:41:49;;;;;;;;;;;21.00;67.10;;;;;;6133550;23;19920;-86
2023/06/11 06:44:15;;;;;;;;;;;21.10;66.30;;;;;;6106797;23;19924;-88
2023/06/11 06:46:41;;;;;;;;;;;21.10;67.20;;;;;;6127373;23;19975;-87
2023/06/11 06:49:06;;;;;;;;;;;21.10;66.50;;;;;;6130077;23;19920;-87
2023/06/11 06:51:32;;;;;;;;;;;21.10;66.10;;;;;;6108740;23;19925;-86
2023/06/11 06:53:58;;;;;;;;;;;21.10;66.20;;;;;;6131801;23;19921;-87
2023/06/11 06:56:24;;;;;;;;;;;21.10;67.00;;;;;;6129694;23;19921;-91
2023/06/11 06:58:50;;;;;;;;;;;21.10;67.50;;;;;;6127629;23;19920;-86
2023/06/11 07:01:15;;;;;;;;;;;21.10;67.50;;;;;;6133047;23;19927;-86
2023/06/11 07:03:41;;;;;;;;;;;21.10;67.30;;;;;;6156223;23;19920;-87
2023/06/11 07:06:08;;;;;;;;;;;21.20;66.50;;;;;;6108657;23;19927;-89
2023/06/11 07:08:34;;;;;;;;;;;21.30;66.90;;;;;;6124731;23;19927;-86
2023/06/11 07:10:59;;;;;;;;;;;21.30;67.20;;;;;;6132380;23;19920;-87
2023/06/11 07:13:25;;;;;;;;;;;21.30;67.20;;;;;;6131518;23;19920;-87
2023/06/11 07:15:51;;;;;;;;;;;21.40;66.90;;;;;;6132829;23;19924;-87
2023/06/11 07:18:17;;;;;;;;;;;21.50;67.20;;;;;;6123469;23;19953;-86
2023/06/11 07:20:43;;;;;;;;;;;21.50;66.60;;;;;;6109367;23;20280;-86
2023/06/11 07:23:09;;;;;;;;;;;21.70;67.20;;;;;;6133033;23;20347;-86
2023/06/11 07:25:37;;;;;;;;;;;21.70;66.40;;;;;;6110894;23;19966;-86
2023/06/11 07:28:04;;;;;;;;;;;21.70;66.00;;;;;;6100925;23;20239;-87
2023/06/11 07:30:30;;;;;;;;;;;21.70;66.40;;;;;;6134974;23;19920;-87
2023/06/11 07:32:56;;;;;;;;;;;21.90;66.70;;;;;;6133275;23;20302;-86
2023/06/11 07:35:22;;;;;;;;;;;21.90;66.00;;;;;;6134810;23;19920;-87
2023/06/11 07:37:48;;;;;;;;;;;21.80;66.70;;;;;;6127305;23;20011;-87
2023/06/11 07:40:15;;;;;;;;;;;21.90;66.30;;;;;;6134462;23;19924;-87
2023/06/11 07:42:44;;;;;;;;;;;21.90;66.70;;;;;;6132843;23;20003;-86
2023/06/11 07:45:10;;;;;;;;;;;21.90;65.80;;;;;;6110623;23;20299;-87
2023/06/11 07:47:35;;;;;;;;;;;21.90;65.80;;;;;;6100654;23;19924;-86
2023/06/11 07:50:02;;;;;;;;;;;22.00;65.50;;;;;;6135187;23;20232;-86
2023/06/11 07:52:28;;;;;;;;;;;22.10;65.70;;;;;;6132861;23;20275;-86
2023/06/11 07:54:53;;;;;;;;;;;22.20;65.80;;;;;;6134965;23;20002;-87
2023/06/11 07:57:19;;;;;;;;;;;22.30;66.10;;;;;;6149713;23;19927;-88
2023/06/11 07:59:45;;;;;;;;;;;22.30;65.50;;;;;;6110203;23;19995;-85
2023/06/11 08:02:11;;;;;;;;;;;22.40;64.80;;;;;;6108089;23;20247;-86
2023/06/11 08:04:37;;;;;;;;;;;22.40;64.70;;;;;;6134656;23;20324;-86
2023/06/11 08:07:03;;;;;;;;;;;22.40;65.00;;;;;;6126993;23;19917;-88
2023/06/11 08:09:29;;;;;;;;;;;22.50;66.40;;;;;;6134445;23;19931;-86
2023/06/11 08:11:55;;;;;;;;;;;22.50;65.00;;;;;;6133747;23;20247;-86
2023/06/11 08:14:21;;;;;;;;;;;22.50;64.70;;;;;;6133189;23;19927;-86
2023/06/11 08:16:52;;;;;;;;;;;22.50;64.30;;;;;;6129184;23;19999;-86
2023/06/11 08:19:18;;;;;;;;;;;22.60;64.40;;;;;;6132697;23;19956;-87
2023/06/11 08:21:44;;;;;;;;;;;22.60;64.40;;;;;;6134646;23;19920;-87
2023/06/11 08:24:10;;;;;;;;;;;22.60;64.80;;;;;;6132407;23;19999;-86
2023/06/11 08:26:36;;;;;;;;;;;22.60;65.40;;;;;;6104248;23;19920;-88
2023/06/11 08:29:02;;;;;;;;;;;22.70;64.70;;;;;;6131034;23;19920;-86
2023/06/11 08:31:28;;;;;;;;;;;22.70;64.90;;;;;;6109923;23;19920;-88
2023/06/11 08:33:53;;;;;;;;;;;22.70;65.40;;;;;;6132685;23;19921;-87
2023/06/11 08:36:20;;;;;;;;;;;22.80;65.70;;;;;;6107955;23;20026;-89
2023/06/11 08:38:46;;;;;;;;;;;22.90;66.00;;;;;;6130238;23;19924;-87
2023/06/11 08:41:12;;;;;;;;;;;23.00;64.40;;;;;;6134182;23;19920;-87
2023/06/11 08:43:38;;;;;;;;;;;23.10;65.20;;;;;;6133245;23;20300;-86
2023/06/11 08:46:05;;;;;;;;;;;23.20;64.80;;;;;;6134411;23;20382;-89
2023/06/11 08:48:40;;;;;;;;;;;23.20;64.20;;;;;;6127324;23;19920;-87
2023/06/11 08:51:08;;;;;;;;;;;23.30;64.90;;;;;;6133939;23;20365;-87
2023/06/11 08:53:34;;;;;;;;;;;23.30;64.90;;;;;;6132197;23;19920;-87
2023/06/11 08:56:00;;;;;;;;;;;23.40;64.60;;;;;;6109575;23;19927;-87
2023/06/11 08:58:26;;;;;;;;;;;23.50;64.60;;;;;;6100317;23;19956;-87
2023/06/11 09:00:52;;;;;;;;;;;23.50;64.10;;;;;;6133884;23;19931;-88
2023/06/11 09:03:18;;;;;;;;;;;23.60;64.90;;;;;;6132276;23;20255;-86
2023/06/11 09:05:45;;;;;;;;;;;23.60;64.50;;;;;;6134167;23;19924;-87
2023/06/11 09:08:10;;;;;;;;;;;23.60;64.00;;;;;;6126469;23;19920;-87
2023/06/11 09:10:49;;;;;;;;;;;23.80;65.10;;;;;;6133789;23;20324;-87
2023/06/11 09:13:16;;;;;;;;;;;23.90;64.10;;;;;;6132077;23;19920;-89
2023/06/11 09:15:48;;;;;;;;;;;23.90;63.90;;;;;;6134137;23;19943;-86
2023/06/11 09:18:19;;;;;;;;;;;24.00;63.50;;;;;;6126053;23;19924;-87
2023/06/11 09:20:48;;;;;;;;;;;24.10;63.90;;;;;;6134157;23;20247;-85
2023/06/11 09:23:22;;;;;;;;;;;24.10;64.00;;;;;;6131366;23;19924;-87
2023/06/11 09:25:48;;;;;;;;;;;24.20;63.10;;;;;;6133842;23;19921;-87
2023/06/11 09:28:14;;;;;;;;;;;24.20;63.10;;;;;;6099711;23;19966;-87
2023/06/11 09:30:39;;;;;;;;;;;24.30;63.50;;;;;;6134268;23;19920;-86
2023/06/11 09:33:14;;;;;;;;;;;24.40;62.90;;;;;;6131830;23;19991;-87
2023/06/11 09:35:44;;;;;;;;;;;24.40;62.60;;;;;;6134179;23;19920;-87
2023/06/11 09:38:13;;;;;;;;;;;24.50;63.60;;;;;;6126018;23;19920;-87
2023/06/11 09:40:39;;;;;;;;;;;24.50;63.40;;;;;;6133853;23;19960;-87
2023/06/11 09:43:05;;;;;;;;;;;24.60;63.20;;;;;;6131777;23;19943;-88
2023/06/11 09:45:31;;;;;;;;;;;24.60;63.60;;;;;;6133544;23;20354;-87
2023/06/11 09:47:57;;;;;;;;;;;24.70;64.00;;;;;;6100507;23;19920;-87
2023/06/11 09:50:24;;;;;;;;;;;24.80;63.70;;;;;;6133119;23;19971;-87
2023/06/11 09:52:50;;;;;;;;;;;24.90;62.40;;;;;;6131316;23;20354;-87
2023/06/11 09:55:15;;;;;;;;;;;25.00;63.00;;;;;;6133707;23;19920;-87
2023/06/11 09:57:42;;;;;;;;;;;25.00;62.40;;;;;;6123504;23;19920;-88
2023/06/11 10:00:10;;;;;;;;;;;25.00;63.50;;;;;;6133938;23;19920;-89
2023/06/11 10:02:37;;;;;;;;;;;25.10;62.90;;;;;;6131438;23;20351;-87
2023/06/11 10:05:04;;;;;;;;;;;25.20;62.10;;;;;;6133647;23;19927;-86
2023/06/11 10:07:30;;;;;;;;;;;25.30;61.40;;;;;;6100116;23;19920;-86
2023/06/11 10:09:56;;;;;;;;;;;25.30;61.50;;;;;;6133646;23;20243;-88
2023/06/11 10:12:22;;;;;;;;;;;25.30;61.40;;;;;;6131339;23;21386;-87
2023/06/11 10:14:52;;;;;;;;;;;25.30;62.20;;;;;;6133288;23;19995;-88
2023/06/11 10:17:17;;;;;;;;;;;25.40;60.80;;;;;;6124328;23;20244;-87
2023/06/11 10:19:49;;;;;;;;;;;25.40;61.30;;;;;;6133443;23;22216;-86
2023/06/11 10:22:20;;;;;;;;;;;25.50;61.50;;;;;;6106658;23;20339;-87
2023/06/11 10:24:55;;;;;;;;;;;25.50;61.60;;;;;;6133703;23;19952;-87
2023/06/11 10:27:20;;;;;;;;;;;25.60;61.10;;;;;;6123838;23;19920;-87
2023/06/11 10:29:46;;;;;;;;;;;25.60;61.40;;;;;;6134041;23;19943;-87
2023/06/11 10:32:27;;;;;;;;;;;25.70;61.10;;;;;;6114969;23;19927;-88
2023/06/11 10:34:56;;;;;;;;;;;25.80;60.70;;;;;;6111706;23;20142;-87
2023/06/11 10:37:28;;;;;;;;;;;25.80;60.30;;;;;;6126420;23;19927;-89
2023/06/11 10:39:57;;;;;;;;;;;25.80;60.60;;;;;;6134090;23;19924;-90
2023/06/11 10:42:33;;;;;;;;;;;25.80;61.00;;;;;;6132100;23;19967;-87
2023/06/11 10:44:59;;;;;;;;;;;25.90;60.00;;;;;;6134192;23;19990;-84
2023/06/11 10:47:26;;;;;;;;;;;25.90;60.00;;;;;;6174754;23;20335;-83
2023/06/11 10:49:53;;;;;;;;;;;26.00;60.30;;;;;;6132313;23;19967;-83
2023/06/11 10:52:19;;;;;;;;;;;26.00;59.80;;;;;;6156777;23;19931;-83
2023/06/11 10:54:48;;;;;;;;;;;26.00;57.80;;;;;;6133944;23;19921;-82
2023/06/11 10:57:14;;;;;;;;;;;26.10;59.00;;;;;;6150510;23;19943;-82
2023/06/11 10:59:40;;;;;;;;;;;26.10;59.90;;;;;;6183954;23;19920;-81
2023/06/11 11:02:11;;;;;;;;;;;26.10;59.10;;;;;;6158195;23;19924;-82
2023/06/11 11:04:49;;;;;;;;;;;26.10;59.70;;;;;;6159591;23;19994;-82
2023/06/11 11:07:14;;;;;;;;;;;26.10;57.80;;;;;;6145863;23;19920;-82
2023/06/11 11:09:40;;;;;;;;;;;26.20;58.10;;;;;;6155300;23;19947;-82
2023/06/11 11:12:06;;;;;;;;;;;26.20;59.30;;;;;;6129414;23;19979;-83
2023/06/11 11:14:31;;;;;;;;;;;26.20;57.30;;;;;;6131481;23;19956;-82
2023/06/11 11:17:00;;;;;;;;;;;26.30;57.30;;;;;;6149489;23;19927;-82
2023/06/11 11:19:27;;;;;;;;;;;26.40;57.00;;;;;;6109718;23;20232;-82
2023/06/11 11:21:52;;;;;;;;;;;26.40;57.10;;;;;;6133592;23;20454;-83
2023/06/11 11:24:18;;;;;;;;;;;26.40;56.80;;;;;;6158166;23;20125;-82
2023/06/11 11:26:45;;;;;;;;;;;26.40;57.20;;;;;;6128691;23;20381;-83
2023/06/11 11:29:11;;;;;;;;;;;26.40;57.60;;;;;;6132573;23;19920;-82
2023/06/11 11:31:37;;;;;;;;;;;26.40;57.40;;;;;;6134933;23;20003;-81
2023/06/11 11:34:03;;;;;;;;;;;26.50;57.20;;;;;;6183839;23;19920;-82
2023/06/11 11:36:30;;;;;;;;;;;26.50;55.90;;;;;;6129638;23;20556;-82
2023/06/11 11:38:55;;;;;;;;;;;26.50;56.60;;;;;;6156415;23;20583;-81
2023/06/11 11:41:22;;;;;;;;;;;26.50;57.00;;;;;;6158783;23;19982;-81
2023/06/11 11:43:49;;;;;;;;;;;26.60;57.30;;;;;;6158365;23;19987;-82
2023/06/11 11:46:16;;;;;;;;;;;26.60;55.40;;;;;;6132185;23;19930;-84
2023/06/11 11:48:44;;;;;;;;;;;26.70;57.40;;;;;;6127857;23;19947;-84
2023/06/11 11:51:11;;;;;;;;;;;26.80;56.20;;;;;;6159147;23;19920;-82
2023/06/11 11:53:37;;;;;;;;;;;26.80;55.10;;;;;;6157489;23;19955;-82
2023/06/11 11:56:04;;;;;;;;;;;26.90;55.20;;;;;;6159124;23;19920;-82
2023/06/11 11:58:36;;;;;;;;;;;26.90;54.70;;;;;;6125065;23;19943;-82
2023/06/11 12:01:02;;;;;;;;;;;26.90;55.30;;;;;;6159343;23;19927;-83
2023/06/11 12:03:27;;;;;;;;;;;27.00;54.50;;;;;;6133366;23;19925;-81
2023/06/11 12:05:58;;;;;;;;;;;27.00;55.10;;;;;;6109517;23;19931;-82
2023/06/11 12:08:24;;;;;;;;;;;27.00;53.90;;;;;;6124964;23;20006;-82
2023/06/11 12:10:50;;;;;;;;;;;27.00;54.40;;;;;;6158851;23;20217;-83
2023/06/11 12:13:16;;;;;;;;;;;27.10;54.50;;;;;;6157922;23;19978;-84
2023/06/11 12:15:41;;;;;;;;;;;27.10;53.60;;;;;;6134162;23;19924;-82
2023/06/11 12:18:07;;;;;;;;;;;27.10;53.40;;;;;;6124306;23;19944;-84
2023/06/11 12:20:32;;;;;;;;;;;27.20;53.20;;;;;;6159294;23;19920;-83
2023/06/11 12:22:58;;;;;;;;;;;27.10;54.40;;;;;;6156948;23;20312;-82
2023/06/11 12:25:25;;;;;;;;;;;27.10;54.50;;;;;;6158708;23;19921;-83
2023/06/11 12:27:51;;;;;;;;;;;27.10;53.50;;;;;;6149740;23;19991;-82
2023/06/11 12:30:17;;;;;;;;;;;27.10;53.80;;;;;;6110167;23;19924;-83
2023/06/11 12:32:43;;;;;;;;;;;27.20;54.10;;;;;;6132585;23;19921;-83
2023/06/11 12:35:09;;;;;;;;;;;27.20;54.20;;;;;;6134104;23;19935;-83
2023/06/11 12:37:36;;;;;;;;;;;27.30;54.00;;;;;;6150356;23;20039;-82
2023/06/11 12:40:02;;;;;;;;;;;27.30;53.80;;;;;;6158959;23;19920;-82
2023/06/11 12:42:29;;;;;;;;;;;27.30;54.00;;;;;;6157604;23;19920;-82
2023/06/11 12:44:55;;;;;;;;;;;27.30;52.40;;;;;;6134648;23;19955;-82
2023/06/11 12:47:21;;;;;;;;;;;27.40;53.20;;;;;;6149221;23;20239;-83
2023/06/11 12:49:46;;;;;;;;;;;27.40;53.30;;;;;;6159313;23;19991;-85
2023/06/11 12:52:12;;;;;;;;;;;27.40;52.10;;;;;;6131359;23;19975;-87
2023/06/11 12:54:38;;;;;;;;;;;27.50;52.20;;;;;;6133567;23;19927;-85
2023/06/11 12:57:06;;;;;;;;;;;27.50;52.00;;;;;;6124359;23;19916;-85
2023/06/11 12:59:32;;;;;;;;;;;27.60;51.90;;;;;;6109004;23;19920;-86
2023/06/11 13:01:58;;;;;;;;;;;27.70;52.80;;;;;;6134044;23;19998;-87
2023/06/11 13:04:24;;;;;;;;;;;27.70;52.10;;;;;;6107746;23;19920;-86
2023/06/11 13:06:50;;;;;;;;;;;27.80;53.40;;;;;;6126097;23;20078;-87
2023/06/11 13:09:16;;;;;;;;;;;27.90;51.80;;;;;;6131689;23;20331;-86
2023/06/11 13:11:41;;;;;;;;;;;28.10;52.60;;;;;;6109024;23;19920;-87
2023/06/11 13:14:08;;;;;;;;;;;28.10;51.90;;;;;;6132744;23;20043;-89
2023/06/11 13:16:34;;;;;;;;;;;28.10;50.70;;;;;;6129057;23;20101;-88
2023/06/11 13:19:02;;;;;;;;;;;28.10;50.90;;;;;;6091031;23;20426;-88
2023/06/11 13:21:28;;;;;;;;;;;28.10;51.20;;;;;;6133718;23;20284;-88
2023/06/11 13:23:54;;;;;;;;;;;28.10;51.20;;;;;;6131618;23;19991;-87
2023/06/11 13:26:23;;;;;;;;;;;28.10;50.30;;;;;;6105959;23;19962;-89
2023/06/11 13:28:51;;;;;;;;;;;28.10;50.50;;;;;;6128199;23;19999;-91
2023/06/11 13:31:17;;;;;;;;;;;28.10;51.40;;;;;;6132471;23;19946;-87
2023/06/11 13:33:43;;;;;;;;;;;28.10;52.70;;;;;;6097309;23;19920;-88
2023/06/11 13:36:09;;;;;;;;;;;28.10;52.10;;;;;;6128514;23;19932;-90
2023/06/11 13:38:36;;;;;;;;;;;28.30;52.90;;;;;;6126526;23;19924;-87
2023/06/11 13:41:02;;;;;;;;;;;28.30;51.10;;;;;;6133152;23;20324;-88
2023/06/11 13:43:28;;;;;;;;;;;28.30;51.40;;;;;;6107182;23;19971;-88
2023/06/11 13:45:54;;;;;;;;;;;28.40;50.80;;;;;;6130459;23;20403;-88
2023/06/11 13:48:20;;;;;;;;;;;28.40;51.00;;;;;;6120955;23;19932;-87
2023/06/11 13:50:48;;;;;;;;;;;28.30;50.10;;;;;;6130736;23;19920;-88
2023/06/11 13:53:14;;;;;;;;;;;28.30;50.60;;;;;;6128780;23;20339;-88
2023/06/11 13:55:40;;;;;;;;;;;28.30;50.20;;;;;;6132675;23;20294;-88
2023/06/11 13:58:06;;;;;;;;;;;28.30;51.20;;;;;;6123882;23;19966;-89
2023/06/11 14:00:32;;;;;;;;;;;28.30;50.90;;;;;;6133401;23;19991;-87
2023/06/11 14:02:58;;;;;;;;;;;28.30;50.20;;;;;;6131920;23;19920;-87
2023/06/11 14:05:25;;;;;;;;;;;28.40;51.00;;;;;;6133264;23;19989;-88
2023/06/11 14:07:51;;;;;;;;;;;28.50;50.90;;;;;;6123832;23;19920;-88
2023/06/11 14:10:17;;;;;;;;;;;28.50;50.60;;;;;;6133232;23;19987;-87
2023/06/11 14:12:42;;;;;;;;;;;28.50;49.80;;;;;;6106052;23;19920;-87
2023/06/11 14:15:08;;;;;;;;;;;28.50;50.40;;;;;;6132753;23;19927;-85
2023/06/11 14:17:37;;;;;;;;;;;28.60;51.20;;;;;;6144951;23;19947;-85
2023/06/11 14:20:04;;;;;;;;;;;28.60;50.20;;;;;;6181444;23;19921;-85
2023/06/11 14:22:31;;;;;;;;;;;28.50;50.40;;;;;;6153737;23;19982;-86